Terminal Aerodrome Forecast
Issued by NWS Portland, ME

Home | Current Version | Previous Version | Text Only | Print | Product List | Glossary On
Versions: 1 2 3 4 5 6 7 8 9 10 11 12 13 14 15 16
451
FTUS41 KGYX 231740
TAFPWM
TAF
KPWM 231740Z 2318/2418 16010KT P6SM FEW015 BKN250
     FM232100 15007KT P6SM BKN012
     FM240000 15004KT 4SM BR OVC003
     FM240200 15005KT 1/2SM FG OVC002
     FM241400 14009KT 4SM BR OVC007=

USA.gov is the U.S. government's official web portal to all federal, state and local government web resources and services.